x

West Sea Otter (46204) Wave Buoy

6:00am - Mon 16th Jan 2017 All times are PST. -8 hours from GMT.

  • Sig Wave height 16.4ft
  • Peak Period 8s
  • Wind
    34mph, 43mph gusts
  • Sea Temp 48°f
  • Air Temp 45°f
  • Sea Pressure 1010.9mb
  • West Sea Otter
  • West Sea Otter

More Historic Weather Station data

Upgrade to MSW Pro to gain access to the past 30 days of data for over 8000 Wavebouys and Weather Stations around the globe.

Join Pro

Comparision Forecast

View Surf forecast
   
Mon 01/16 6:00am 16.5ft 8s 34 43 mph 1010.9mb 48f 45f
5:00am 17ft 9s 36 45 mph 1011.4mb 48f 45f
4:00am 17ft 8s 34 47 mph 1012.2mb 48f 47f
3:00am 15.5ft 8s 34 45 mph 1012.2mb 48f 48f
12:00am 14ft 8s 31 45 mph 1014.2mb 48f 47f
Sun 01/15 11:00pm 14ft 7s 29 34 mph 1014.8mb 48f 48f
10:00pm 12.5ft 7s 36 45 mph 1014mb 47f 48f
9:00pm 12.5ft 7s 29 38 mph 1015.3mb 47f 48f
8:00pm 12ft 15s 29 36 mph 1016mb 47f 47f
7:00pm 11ft 15s 25 31 mph 1016.5mb 47f 47f
6:00pm 11.5ft 16s 25 29 mph 1016.8mb 48f 47f
5:00pm 12ft 16s 27 31 mph 1017.4mb 47f 47f
4:00pm 11.5ft 13s 27 34 mph 1018.3mb 48f 47f
3:00pm 12ft 16s 25 31 mph 1018.4mb 48f 47f
2:00pm  -   -  22
mph
1019.4mb - 47f
1:00pm 12ft 16s 31 38 mph 1020mb 47f 47f
12:00pm 12ft 17s 27 31 mph 1020.5mb 47f 47f
11:00am 11.5ft 10s 25 31 mph 1020.9mb 47f 46f
10:00am 12.5ft 12s 25 31 mph 1021mb 47f 46f
9:00am 12ft 10s 27 36 mph 1020.2mb 47f 46f
8:00am 11ft 12s 29 36 mph 1020.2mb 47f 46f
7:00am 12ft 12s 27 34 mph 1020.4mb 47f 46f
6:00am 11ft 12s 13 27 mph 1020.8mb 47f 45f
5:00am 11.5ft 12s 25 31 mph 1020.5mb 47f 46f
4:00am 11.5ft 7s 27 34 mph 1020.5mb 47f 46f
3:00am 12ft 12s 29 36 mph 1020.3mb 47f 45f
2:00am 12ft 6s 29 36 mph 1020.1mb 47f 45f
1:00am 12ft 10s 31 38 mph 1020.3mb 48f 45f
12:00am 12ft 8s 31 36 mph 1020.3mb 48f 45f
Sat 01/14 11:00pm 12.5ft 11s 31 38 mph 1020.5mb 47f 44f
10:00pm 12.5ft 11s 29 36 mph 1020.6mb 47f 43f
9:00pm 11ft 10s 29 34 mph 1020.8mb 47f 44f
8:00pm 11.5ft 10s 29 34 mph 1020.6mb 47f 44f
7:00pm 11ft 11s 31 36 mph 1020.9mb 47f 43f
6:00pm 12ft 9s 29 38 mph 1020.8mb 47f 42f
5:00pm 11.5ft 10s 29 36 mph 1020.9mb 47f 42f
4:00pm 14ft 8s 31 36 mph 1020.7mb 47f 42f
3:00pm 12ft 8s 29 36 mph 1020.8mb 47f 43f
2:00pm 13ft 12s 31 38 mph 1021mb 47f 44f
1:00pm 13ft 11s 34 43 mph 1021.1mb 47f 44f
12:00pm 13.5ft 11s 34 43 mph 1021.9mb 47f 44f
11:00am  -   -  31
mph
1022.6mb - 45f
10:00am 13ft 10s 29 34 mph 1022.5mb 47f 44f
9:00am 14ft 11s 31 36 mph 1022.3mb 47f 44f
8:00am 13.5ft 11s 31 38 mph 1022.6mb 47f 44f
7:00am 14ft 11s 31 38 mph 1022.5mb 47f 44f
6:00am 13.5ft 12s 31 40 mph 1022.6mb 47f 43f
5:00am 15ft 12s 31 38 mph 1023.3mb 47f 43f
4:00am 15ft 8s 31 40 mph 1023.8mb 47f 42f
3:00am 14ft 9s 29 38 mph 1023.6mb 47f 43f
2:00am 14ft 8s 29 34 mph 1024.6mb 47f 43f
1:00am 13ft 8s 31 40 mph 1023.6mb 47f 43f
12:00am  -   -  31
mph
1023.7mb 47f 43f
Fri 01/13 11:00pm 11ft 7s 31 38 mph 1024.3mb 47f 43f
10:00pm 11ft 7s 29 36 mph 1024.3mb 47f 43f
9:00pm 10.5ft 6s 31 40 mph 1024.2mb 47f 44f
8:00pm 10ft 7s 31 38 mph 1023.9mb 47f 44f
7:00pm 10ft 6s 31 38 mph 1024mb 47f 43f
6:00pm 9.5ft 7s 29 34 mph 1024.2mb 47f 44f
5:00pm 9.5ft 7s 29 36 mph 1024.5mb 47f 44f
4:00pm 9ft 7s 29 34 mph 1024.3mb 47f 44f
3:00pm 10ft 7s 27 36 mph 1024.1mb 47f 43f
2:00pm 9ft 6s 27 34 mph 1023.8mb 47f 43f
1:00pm 9.5ft 6s 27 34 mph 1024.3mb 47f 44f
12:00pm 9ft 5s 27 36 mph 1024.7mb 47f 43f
11:00am 8ft 5s 27 34 mph 1024.8mb 47f 43f
10:00am 7.5ft 5s 29 36 mph 1024.7mb 47f 43f
9:00am 7.5ft 6s 29 36 mph 1024.4mb 47f 43f
8:00am 6.5ft 5s 27 34 mph 1023.8mb 48f 42f
7:00am 6.5ft 5s 27 34 mph 1023.8mb 47f 42f
6:00am 6.5ft 6s 25 31 mph 1024mb 47f 42f
5:00am 6.5ft 5s 25 29 mph 1024.4mb 48f 42f
4:00am 5ft 11s 25 31 mph 1024mb 47f 43f
3:00am 5ft 11s 18 22 mph 1024.2mb 47f 43f
2:00am 5ft 11s 16 18 mph 1024mb 47f 44f
1:00am 4.5ft 11s 16 20 mph 1023.8mb 47f 44f
12:00am 4.5ft 11s 18 20 mph 1023.6mb 48f 44f
Thu 01/12 11:00pm 4.5ft 11s 16 18 mph 1023.6mb 48f 44f
10:00pm 4.5ft 11s 11 13 mph 1023.3mb 47f 44f
9:00pm 5ft 11s 9 11 mph 1023.4mb 47f 44f
7:00pm 5ft 11s 18 22 mph 1023.1mb 47f 42f
6:00pm 4.5ft 12s 20 25 mph 1022.9mb 47f 42f
5:00pm 5.5ft 11s 18 22 mph 1022.8mb 48f 42f
4:00pm 5ft 12s 20 27 mph 1022.4mb 47f 41f